sensor_id;sensor_type;location;lat;lon;timestamp;temperature;humidity
64939;DHT22;51453;47.738;7.420;2023-02-28T00:01:21;1.10;99.90
64939;DHT22;51453;47.738;7.420;2023-02-28T00:03:47;1.00;99.90
64939;DHT22;51453;47.738;7.420;2023-02-28T00:06:13;1.00;99.90
64939;DHT22;51453;47.738;7.420;2023-02-28T00:08:39;1.00;99.90
64939;DHT22;51453;47.738;7.420;2023-02-28T00:11:07;1.00;99.90
64939;DHT22;51453;47.738;7.420;2023-02-28T00:13:35;1.00;99.90
64939;DHT22;51453;47.738;7.420;2023-02-28T00:16:05;1.00;99.90
64939;DHT22;51453;47.738;7.420;2023-02-28T00:18:32;1.00;99.90
64939;DHT22;51453;47.738;7.420;2023-02-28T00:20:58;1.00;99.90
64939;DHT22;51453;47.738;7.420;2023-02-28T00:23:25;1.00;99.90
64939;DHT22;51453;47.738;7.420;2023-02-28T00:25:51;1.00;99.90
64939;DHT22;51453;47.738;7.420;2023-02-28T00:28:16;1.00;99.90
64939;DHT22;51453;47.738;7.420;2023-02-28T00:30:43;1.00;99.90
64939;DHT22;51453;47.738;7.420;2023-02-28T00:33:09;0.90;99.90
64939;DHT22;51453;47.738;7.420;2023-02-28T00:35:34;0.90;99.90
64939;DHT22;51453;47.738;7.420;2023-02-28T00:38:00;0.90;99.90
64939;DHT22;51453;47.738;7.420;2023-02-28T00:40:26;0.90;99.90
64939;DHT22;51453;47.738;7.420;2023-02-28T00:42:51;0.90;99.90
64939;DHT22;51453;47.738;7.420;2023-02-28T00:45:17;0.80;99.90
64939;DHT22;51453;47.738;7.420;2023-02-28T00:47:43;0.80;99.90
64939;DHT22;51453;47.738;7.420;2023-02-28T00:50:09;0.80;99.90
64939;DHT22;51453;47.738;7.420;2023-02-28T00:52:35;0.80;99.90
64939;DHT22;51453;47.738;7.420;2023-02-28T00:55:01;0.80;99.90
64939;DHT22;51453;47.738;7.420;2023-02-28T00:57:26;0.80;99.90
64939;DHT22;51453;47.738;7.420;2023-02-28T00:59:52;0.80;99.90
64939;DHT22;51453;47.738;7.420;2023-02-28T01:02:21;0.70;99.90
64939;DHT22;51453;47.738;7.420;2023-02-28T01:04:47;0.70;99.90
64939;DHT22;51453;47.738;7.420;2023-02-28T01:07:12;0.70;99.90
64939;DHT22;51453;47.738;7.420;2023-02-28T01:09:40;0.70;99.90
64939;DHT22;51453;47.738;7.420;2023-02-28T01:12:08;0.70;99.90
64939;DHT22;51453;47.738;7.420;2023-02-28T01:14:33;0.60;99.90
64939;DHT22;51453;47.738;7.420;2023-02-28T01:17:00;0.60;99.90
64939;DHT22;51453;47.738;7.420;2023-02-28T01:19:25;0.60;99.90
64939;DHT22;51453;47.738;7.420;2023-02-28T01:21:51;0.50;99.90
64939;DHT22;51453;47.738;7.420;2023-02-28T01:24:17;0.50;99.90
64939;DHT22;51453;47.738;7.420;2023-02-28T01:26:42;0.40;99.90
64939;DHT22;51453;47.738;7.420;2023-02-28T01:29:08;0.40;99.90
64939;DHT22;51453;47.738;7.420;2023-02-28T01:31:34;0.40;99.90
64939;DHT22;51453;47.738;7.420;2023-02-28T01:33:59;0.30;99.90
64939;DHT22;51453;47.738;7.420;2023-02-28T01:36:25;0.40;99.90
64939;DHT22;51453;47.738;7.420;2023-02-28T01:38:51;0.30;99.90
64939;DHT22;51453;47.738;7.420;2023-02-28T01:41:23;0.20;99.90
64939;DHT22;51453;47.738;7.420;2023-02-28T01:46:15;0.10;99.90
64939;DHT22;51453;47.738;7.420;2023-02-28T01:48:53;0.10;99.90
64939;DHT22;51453;47.738;7.420;2023-02-28T01:51:29;0.00;99.90
64939;DHT22;51453;47.738;7.420;2023-02-28T01:54:01;-0.10;99.90
64939;DHT22;51453;47.738;7.420;2023-02-28T01:56:30;-0.10;99.90
64939;DHT22;51453;47.738;7.420;2023-02-28T01:58:58;-0.10;99.90
64939;DHT22;51453;47.738;7.420;2023-02-28T02:01:26;-0.10;99.90
64939;DHT22;51453;47.738;7.420;2023-02-28T02:04:01;-0.20;99.90
64939;DHT22;51453;47.738;7.420;2023-02-28T02:06:34;-0.20;99.90
64939;DHT22;51453;47.738;7.420;2023-02-28T02:09:01;-0.20;99.90
64939;DHT22;51453;47.738;7.420;2023-02-28T02:11:27;-0.20;99.90
64939;DHT22;51453;47.738;7.420;2023-02-28T02:14:44;-0.30;99.90
64939;DHT22;51453;47.738;7.420;2023-02-28T02:17:27;-0.30;99.90
64939;DHT22;51453;47.738;7.420;2023-02-28T02:25:22;-0.30;99.90
64939;DHT22;51453;47.738;7.420;2023-02-28T02:36:27;-0.40;99.90
64939;DHT22;51453;47.738;7.420;2023-02-28T02:39:01;-0.40;99.90
64939;DHT22;51453;47.738;7.420;2023-02-28T02:41:45;-0.40;99.90
64939;DHT22;51453;47.738;7.420;2023-02-28T02:47:19;-0.50;99.90
64939;DHT22;51453;47.738;7.420;2023-02-28T02:49:50;-0.50;99.90
64939;DHT22;51453;47.738;7.420;2023-02-28T02:52:22;-0.50;99.90
64939;DHT22;51453;47.738;7.420;2023-02-28T02:54:52;-0.50;99.90
64939;DHT22;51453;47.738;7.420;2023-02-28T02:57:24;-0.50;99.90
64939;DHT22;51453;47.738;7.420;2023-02-28T02:59:51;-0.40;99.90
64939;DHT22;51453;47.738;7.420;2023-02-28T03:02:20;-0.50;99.90
64939;DHT22;51453;47.738;7.420;2023-02-28T03:05:01;-0.40;99.90
64939;DHT22;51453;47.738;7.420;2023-02-28T03:07:28;-0.50;99.90
64939;DHT22;51453;47.738;7.420;2023-02-28T03:09:55;-0.50;99.90
64939;DHT22;51453;47.738;7.420;2023-02-28T03:12:25;-0.50;99.90
64939;DHT22;51453;47.738;7.420;2023-02-28T03:15:18;-0.50;99.90
64939;DHT22;51453;47.738;7.420;2023-02-28T03:20:27;-0.50;99.90
64939;DHT22;51453;47.738;7.420;2023-02-28T03:23:28;-0.50;99.90
64939;DHT22;51453;47.738;7.420;2023-02-28T03:26:06;-0.50;99.90
64939;DHT22;51453;47.738;7.420;2023-02-28T03:28:49;-0.50;99.90
64939;DHT22;51453;47.738;7.420;2023-02-28T03:34:17;-0.50;99.90
64939;DHT22;51453;47.738;7.420;2023-02-28T03:36:48;-0.50;99.90
64939;DHT22;51453;47.738;7.420;2023-02-28T03:39:45;-0.50;99.90
64939;DHT22;51453;47.738;7.420;2023-02-28T03:42:14;-0.50;99.90
64939;DHT22;51453;47.738;7.420;2023-02-28T03:44:49;-0.50;99.90
64939;DHT22;51453;47.738;7.420;2023-02-28T03:47:25;-0.50;99.90
64939;DHT22;51453;47.738;7.420;2023-02-28T03:49:53;-0.50;99.90
64939;DHT22;51453;47.738;7.420;2023-02-28T03:52:21;-0.60;99.90
64939;DHT22;51453;47.738;7.420;2023-02-28T03:54:52;-0.50;99.90
64939;DHT22;51453;47.738;7.420;2023-02-28T03:57:27;-0.50;99.90
64939;DHT22;51453;47.738;7.420;2023-02-28T04:00:09;-0.50;99.90
64939;DHT22;51453;47.738;7.420;2023-02-28T04:02:35;-0.50;99.90
64939;DHT22;51453;47.738;7.420;2023-02-28T04:05:01;-0.50;99.90
64939;DHT22;51453;47.738;7.420;2023-02-28T04:07:30;-0.50;99.90
64939;DHT22;51453;47.738;7.420;2023-02-28T04:09:56;-0.50;99.90
64939;DHT22;51453;47.738;7.420;2023-02-28T04:12:22;-0.60;99.90
64939;DHT22;51453;47.738;7.420;2023-02-28T04:14:49;-0.50;99.90
64939;DHT22;51453;47.738;7.420;2023-02-28T04:17:15;-0.50;99.90
64939;DHT22;51453;47.738;7.420;2023-02-28T04:19:44;-0.50;99.90
64939;DHT22;51453;47.738;7.420;2023-02-28T04:22:10;-0.50;99.90
64939;DHT22;51453;47.738;7.420;2023-02-28T04:24:36;-0.50;99.90
64939;DHT22;51453;47.738;7.420;2023-02-28T04:27:01;-0.50;99.90
64939;DHT22;51453;47.738;7.420;2023-02-28T04:29:29;-0.40;99.90
64939;DHT22;51453;47.738;7.420;2023-02-28T04:31:56;-0.50;99.90
64939;DHT22;51453;47.738;7.420;2023-02-28T04:34:30;-0.50;99.90
64939;DHT22;51453;47.738;7.420;2023-02-28T04:36:56;-0.50;99.90
64939;DHT22;51453;47.738;7.420;2023-02-28T04:39:24;-0.40;99.90
64939;DHT22;51453;47.738;7.420;2023-02-28T04:41:50;-0.40;99.90
64939;DHT22;51453;47.738;7.420;2023-02-28T04:44:16;-0.50;99.90
64939;DHT22;51453;47.738;7.420;2023-02-28T04:46:42;-0.50;99.90
64939;DHT22;51453;47.738;7.420;2023-02-28T04:49:11;-0.50;99.90
64939;DHT22;51453;47.738;7.420;2023-02-28T04:51:37;-0.50;99.90
64939;DHT22;51453;47.738;7.420;2023-02-28T04:54:04;-0.50;99.90
64939;DHT22;51453;47.738;7.420;2023-02-28T04:56:30;-0.60;99.90
64939;DHT22;51453;47.738;7.420;2023-02-28T04:58:55;-0.60;99.90
64939;DHT22;51453;47.738;7.420;2023-02-28T05:01:29;-0.60;99.90
64939;DHT22;51453;47.738;7.420;2023-02-28T05:03:57;-0.60;99.90
64939;DHT22;51453;47.738;7.420;2023-02-28T05:06:25;-0.60;99.90
64939;DHT22;51453;47.738;7.420;2023-02-28T05:08:53;-0.60;99.90
64939;DHT22;51453;47.738;7.420;2023-02-28T05:11:32;-0.70;99.90
64939;DHT22;51453;47.738;7.420;2023-02-28T05:14:02;-0.70;99.90
64939;DHT22;51453;47.738;7.420;2023-02-28T05:16:28;-0.70;99.90
64939;DHT22;51453;47.738;7.420;2023-02-28T05:18:54;-0.70;99.90
64939;DHT22;51453;47.738;7.420;2023-02-28T05:21:25;-0.80;99.90
64939;DHT22;51453;47.738;7.420;2023-02-28T05:23:51;-0.80;99.90
64939;DHT22;51453;47.738;7.420;2023-02-28T05:26:17;-0.80;99.90
64939;DHT22;51453;47.738;7.420;2023-02-28T05:28:43;-0.90;99.90
64939;DHT22;51453;47.738;7.420;2023-02-28T05:31:13;-0.80;99.90
64939;DHT22;51453;47.738;7.420;2023-02-28T05:33:39;-0.90;99.90
64939;DHT22;51453;47.738;7.420;2023-02-28T05:36:05;-0.80;99.90
64939;DHT22;51453;47.738;7.420;2023-02-28T05:38:31;-0.80;99.90
64939;DHT22;51453;47.738;7.420;2023-02-28T05:40:57;-0.80;99.90
64939;DHT22;51453;47.738;7.420;2023-02-28T05:43:23;-0.80;99.90
64939;DHT22;51453;47.738;7.420;2023-02-28T05:45:48;-0.90;99.90
64939;DHT22;51453;47.738;7.420;2023-02-28T05:48:14;-1.00;99.90
64939;DHT22;51453;47.738;7.420;2023-02-28T05:50:40;-1.00;99.90
64939;DHT22;51453;47.738;7.420;2023-02-28T05:53:06;-1.00;99.90
64939;DHT22;51453;47.738;7.420;2023-02-28T05:55:32;-1.00;99.90
64939;DHT22;51453;47.738;7.420;2023-02-28T05:57:57;-1.00;99.90
64939;DHT22;51453;47.738;7.420;2023-02-28T06:00:23;-1.00;99.90
64939;DHT22;51453;47.738;7.420;2023-02-28T06:02:49;-1.00;99.90
64939;DHT22;51453;47.738;7.420;2023-02-28T06:05:16;-1.10;99.90
64939;DHT22;51453;47.738;7.420;2023-02-28T06:07:44;-1.10;99.90
64939;DHT22;51453;47.738;7.420;2023-02-28T06:10:11;-1.20;99.90
64939;DHT22;51453;47.738;7.420;2023-02-28T06:12:37;-1.10;99.90
64939;DHT22;51453;47.738;7.420;2023-02-28T06:15:03;-1.20;99.90
64939;DHT22;51453;47.738;7.420;2023-02-28T06:17:29;-1.20;99.90
64939;DHT22;51453;47.738;7.420;2023-02-28T06:19:55;-1.30;99.90
64939;DHT22;51453;47.738;7.420;2023-02-28T06:22:21;-1.20;99.90
64939;DHT22;51453;47.738;7.420;2023-02-28T06:24:46;-1.20;99.90
64939;DHT22;51453;47.738;7.420;2023-02-28T06:27:12;-1.20;99.90
64939;DHT22;51453;47.738;7.420;2023-02-28T06:29:37;-1.30;99.90
64939;DHT22;51453;47.738;7.420;2023-02-28T06:32:05;-1.30;99.90
64939;DHT22;51453;47.738;7.420;2023-02-28T06:34:31;-1.30;99.90
64939;DHT22;51453;47.738;7.420;2023-02-28T06:36:59;-1.40;99.90
64939;DHT22;51453;47.738;7.420;2023-02-28T06:39:28;-1.40;99.90
64939;DHT22;51453;47.738;7.420;2023-02-28T06:41:54;-1.40;99.90
64939;DHT22;51453;47.738;7.420;2023-02-28T06:44:20;-1.30;99.90
64939;DHT22;51453;47.738;7.420;2023-02-28T06:46:46;-1.30;99.90
64939;DHT22;51453;47.738;7.420;2023-02-28T06:49:12;-1.30;99.90
64939;DHT22;51453;47.738;7.420;2023-02-28T06:51:40;-1.30;99.90
64939;DHT22;51453;47.738;7.420;2023-02-28T06:54:07;-1.10;99.90
64939;DHT22;51453;47.738;7.420;2023-02-28T06:56:36;-1.10;99.90
64939;DHT22;51453;47.738;7.420;2023-02-28T06:59:03;-1.20;99.90
64939;DHT22;51453;47.738;7.420;2023-02-28T07:01:33;-1.20;99.90
64939;DHT22;51453;47.738;7.420;2023-02-28T07:03:59;-1.20;99.90
64939;DHT22;51453;47.738;7.420;2023-02-28T07:06:26;-1.20;99.90
64939;DHT22;51453;47.738;7.420;2023-02-28T07:08:53;-1.10;99.90
64939;DHT22;51453;47.738;7.420;2023-02-28T07:11:21;-1.10;99.90
64939;DHT22;51453;47.738;7.420;2023-02-28T07:13:48;-1.00;99.90
64939;DHT22;51453;47.738;7.420;2023-02-28T07:16:14;-1.10;99.90
64939;DHT22;51453;47.738;7.420;2023-02-28T07:18:40;-1.00;99.90
64939;DHT22;51453;47.738;7.420;2023-02-28T07:21:07;-1.00;99.90
64939;DHT22;51453;47.738;7.420;2023-02-28T07:23:33;-1.10;99.90
64939;DHT22;51453;47.738;7.420;2023-02-28T07:25:59;-1.00;99.90
64939;DHT22;51453;47.738;7.420;2023-02-28T07:28:25;-0.90;99.90
64939;DHT22;51453;47.738;7.420;2023-02-28T07:30:51;-0.80;99.90
64939;DHT22;51453;47.738;7.420;2023-02-28T07:33:17;-0.90;99.90
64939;DHT22;51453;47.738;7.420;2023-02-28T07:35:43;-0.90;99.90
64939;DHT22;51453;47.738;7.420;2023-02-28T07:38:09;-0.70;99.90
64939;DHT22;51453;47.738;7.420;2023-02-28T07:40:35;-0.70;99.90
64939;DHT22;51453;47.738;7.420;2023-02-28T07:43:01;-0.60;99.90
64939;DHT22;51453;47.738;7.420;2023-02-28T07:45:28;-0.70;99.90
64939;DHT22;51453;47.738;7.420;2023-02-28T07:47:55;-0.40;99.90
64939;DHT22;51453;47.738;7.420;2023-02-28T07:50:21;-0.50;99.90
64939;DHT22;51453;47.738;7.420;2023-02-28T07:52:47;-0.50;99.90
64939;DHT22;51453;47.738;7.420;2023-02-28T07:55:13;-0.30;99.90
64939;DHT22;51453;47.738;7.420;2023-02-28T07:57:40;-0.30;99.90
64939;DHT22;51453;47.738;7.420;2023-02-28T08:00:07;-0.20;99.90
64939;DHT22;51453;47.738;7.420;2023-02-28T08:02:35;-0.10;99.90
64939;DHT22;51453;47.738;7.420;2023-02-28T08:05:01;-0.10;99.90
64939;DHT22;51453;47.738;7.420;2023-02-28T08:07:27;-0.20;99.90
64939;DHT22;51453;47.738;7.420;2023-02-28T08:09:53;-0.20;99.90
64939;DHT22;51453;47.738;7.420;2023-02-28T08:12:18;-0.20;99.90
64939;DHT22;51453;47.738;7.420;2023-02-28T08:14:44;-0.30;99.90
64939;DHT22;51453;47.738;7.420;2023-02-28T08:17:10;-0.30;99.90
64939;DHT22;51453;47.738;7.420;2023-02-28T08:19:36;-0.20;99.90
64939;DHT22;51453;47.738;7.420;2023-02-28T08:22:02;0.00;99.90
64939;DHT22;51453;47.738;7.420;2023-02-28T08:24:27;0.00;99.90
64939;DHT22;51453;47.738;7.420;2023-02-28T08:26:53;0.20;99.90
64939;DHT22;51453;47.738;7.420;2023-02-28T08:29:19;0.20;99.90
64939;DHT22;51453;47.738;7.420;2023-02-28T08:31:44;0.10;99.90
64939;DHT22;51453;47.738;7.420;2023-02-28T08:34:13;0.00;99.90
64939;DHT22;51453;47.738;7.420;2023-02-28T08:36:39;0.10;99.90
64939;DHT22;51453;47.738;7.420;2023-02-28T08:39:06;0.10;99.90
64939;DHT22;51453;47.738;7.420;2023-02-28T08:41:32;0.10;99.90
64939;DHT22;51453;47.738;7.420;2023-02-28T08:43:58;0.20;99.90
64939;DHT22;51453;47.738;7.420;2023-02-28T08:46:24;0.30;99.90
64939;DHT22;51453;47.738;7.420;2023-02-28T08:48:55;0.40;99.90
64939;DHT22;51453;47.738;7.420;2023-02-28T08:51:21;0.40;99.90
64939;DHT22;51453;47.738;7.420;2023-02-28T08:53:52;0.40;99.90
64939;DHT22;51453;47.738;7.420;2023-02-28T08:56:18;0.50;99.90
64939;DHT22;51453;47.738;7.420;2023-02-28T08:58:45;0.40;99.90
64939;DHT22;51453;47.738;7.420;2023-02-28T09:01:23;0.40;99.90
64939;DHT22;51453;47.738;7.420;2023-02-28T09:03:50;0.60;99.90
64939;DHT22;51453;47.738;7.420;2023-02-28T09:06:17;0.70;99.90
64939;DHT22;51453;47.738;7.420;2023-02-28T09:08:44;0.70;99.90
64939;DHT22;51453;47.738;7.420;2023-02-28T09:11:10;0.70;99.90
64939;DHT22;51453;47.738;7.420;2023-02-28T09:13:36;0.60;99.90
64939;DHT22;51453;47.738;7.420;2023-02-28T09:16:04;0.50;99.90
64939;DHT22;51453;47.738;7.420;2023-02-28T09:18:30;0.60;99.90
64939;DHT22;51453;47.738;7.420;2023-02-28T09:20:57;0.60;99.90
64939;DHT22;51453;47.738;7.420;2023-02-28T09:23:23;0.70;99.90
64939;DHT22;51453;47.738;7.420;2023-02-28T09:25:54;0.70;99.90
64939;DHT22;51453;47.738;7.420;2023-02-28T09:28:20;0.70;99.90
64939;DHT22;51453;47.738;7.420;2023-02-28T09:30:49;0.90;99.90
64939;DHT22;51453;47.738;7.420;2023-02-28T09:33:16;0.90;99.90
64939;DHT22;51453;47.738;7.420;2023-02-28T09:35:42;1.10;99.90
64939;DHT22;51453;47.738;7.420;2023-02-28T09:38:10;1.10;99.90
64939;DHT22;51453;47.738;7.420;2023-02-28T09:40:57;1.20;99.90
64939;DHT22;51453;47.738;7.420;2023-02-28T09:43:31;1.30;99.90
64939;DHT22;51453;47.738;7.420;2023-02-28T09:48:37;1.10;99.90
64939;DHT22;51453;47.738;7.420;2023-02-28T09:51:05;1.20;99.90
64939;DHT22;51453;47.738;7.420;2023-02-28T09:53:37;1.10;99.90
64939;DHT22;51453;47.738;7.420;2023-02-28T09:56:08;1.30;99.90
64939;DHT22;51453;47.738;7.420;2023-02-28T10:01:54;1.80;99.90
64939;DHT22;51453;47.738;7.420;2023-02-28T10:07:21;2.20;99.90
64939;DHT22;51453;47.738;7.420;2023-02-28T10:09:54;2.00;99.90
64939;DHT22;51453;47.738;7.420;2023-02-28T10:12:20;1.90;99.90
64939;DHT22;51453;47.738;7.420;2023-02-28T10:14:50;2.20;99.90
64939;DHT22;51453;47.738;7.420;2023-02-28T10:17:21;2.20;99.90
64939;DHT22;51453;47.738;7.420;2023-02-28T10:22:24;2.60;99.90
64939;DHT22;51453;47.738;7.420;2023-02-28T10:24:54;2.60;99.90
64939;DHT22;51453;47.738;7.420;2023-02-28T10:27:22;2.60;99.90
64939;DHT22;51453;47.738;7.420;2023-02-28T10:29:51;2.60;99.90
64939;DHT22;51453;47.738;7.420;2023-02-28T10:32:22;2.30;99.90
64939;DHT22;51453;47.738;7.420;2023-02-28T10:35:16;2.10;99.90
64939;DHT22;51453;47.738;7.420;2023-02-28T10:37:46;2.20;99.90
64939;DHT22;51453;47.738;7.420;2023-02-28T10:49:14;2.70;99.90
64939;DHT22;51453;47.738;7.420;2023-02-28T10:51:42;2.80;99.90
64939;DHT22;51453;47.738;7.420;2023-02-28T10:54:35;2.80;99.90
64939;DHT22;51453;47.738;7.420;2023-02-28T10:57:20;2.80;99.90
64939;DHT22;51453;47.738;7.420;2023-02-28T10:59:51;2.70;99.90
64939;DHT22;51453;47.738;7.420;2023-02-28T11:04:57;2.90;99.90
64939;DHT22;51453;47.738;7.420;2023-02-28T11:07:25;3.20;99.90
64939;DHT22;51453;47.738;7.420;2023-02-28T11:09:53;3.30;99.90
64939;DHT22;51453;47.738;7.420;2023-02-28T11:12:29;3.20;99.90
64939;DHT22;51453;47.738;7.420;2023-02-28T11:15:02;3.20;99.90
64939;DHT22;51453;47.738;7.420;2023-02-28T11:17:31;3.10;99.90
64939;DHT22;51453;47.738;7.420;2023-02-28T11:20:13;3.30;99.90
64939;DHT22;51453;47.738;7.420;2023-02-28T11:22:45;3.30;99.90
64939;DHT22;51453;47.738;7.420;2023-02-28T11:25:31;3.10;99.90
64939;DHT22;51453;47.738;7.420;2023-02-28T11:27:59;3.10;99.90
64939;DHT22;51453;47.738;7.420;2023-02-28T11:30:39;3.10;99.90
64939;DHT22;51453;47.738;7.420;2023-02-28T11:33:27;3.40;99.90
64939;DHT22;51453;47.738;7.420;2023-02-28T11:35:57;3.30;99.90
64939;DHT22;51453;47.738;7.420;2023-02-28T11:38:25;3.40;99.90
64939;DHT22;51453;47.738;7.420;2023-02-28T11:44:28;3.30;99.90
64939;DHT22;51453;47.738;7.420;2023-02-28T11:46:40;3.40;99.90
64939;DHT22;51453;47.738;7.420;2023-02-28T12:03:45;3.90;99.90
64939;DHT22;51453;47.738;7.420;2023-02-28T12:09:10;3.70;99.90
64939;DHT22;51453;47.738;7.420;2023-02-28T12:14:58;3.70;99.90
64939;DHT22;51453;47.738;7.420;2023-02-28T12:17:58;3.80;99.90
64939;DHT22;51453;47.738;7.420;2023-02-28T12:26:00;3.90;99.90
64939;DHT22;51453;47.738;7.420;2023-02-28T12:28:35;4.10;99.90
64939;DHT22;51453;47.738;7.420;2023-02-28T12:31:23;4.00;99.90
64939;DHT22;51453;47.738;7.420;2023-02-28T12:33:59;4.00;99.90
64939;DHT22;51453;47.738;7.420;2023-02-28T12:36:26;3.90;99.90
64939;DHT22;51453;47.738;7.420;2023-02-28T12:38:55;4.10;99.90
64939;DHT22;51453;47.738;7.420;2023-02-28T12:44:13;4.00;99.90
64939;DHT22;51453;47.738;7.420;2023-02-28T12:46:52;4.00;99.90
64939;DHT22;51453;47.738;7.420;2023-02-28T12:51:58;4.30;99.90
64939;DHT22;51453;47.738;7.420;2023-02-28T13:00:32;4.30;99.90
64939;DHT22;51453;47.738;7.420;2023-02-28T13:11:06;4.00;99.90
64939;DHT22;51453;47.738;7.420;2023-02-28T13:13:32;4.30;99.90
64939;DHT22;51453;47.738;7.420;2023-02-28T13:16:05;4.20;99.90
64939;DHT22;51453;47.738;7.420;2023-02-28T13:18:40;4.40;99.90
64939;DHT22;51453;47.738;7.420;2023-02-28T13:21:09;4.30;99.90
64939;DHT22;51453;47.738;7.420;2023-02-28T13:34:41;4.50;99.90
64939;DHT22;51453;47.738;7.420;2023-02-28T13:42:34;4.20;99.90
64939;DHT22;51453;47.738;7.420;2023-02-28T13:47:40;4.30;99.90
64939;DHT22;51453;47.738;7.420;2023-02-28T13:55:45;4.20;99.90
64939;DHT22;51453;47.738;7.420;2023-02-28T14:06:36;3.70;99.90
64939;DHT22;51453;47.738;7.420;2023-02-28T14:09:03;3.70;99.90
64939;DHT22;51453;47.738;7.420;2023-02-28T14:11:38;3.70;99.90
64939;DHT22;51453;47.738;7.420;2023-02-28T14:14:06;3.70;99.90
64939;DHT22;51453;47.738;7.420;2023-02-28T14:16:39;3.70;99.90
64939;DHT22;51453;47.738;7.420;2023-02-28T14:19:17;3.70;99.90
64939;DHT22;51453;47.738;7.420;2023-02-28T14:22:13;3.70;99.90
64939;DHT22;51453;47.738;7.420;2023-02-28T14:30:26;4.00;99.90
64939;DHT22;51453;47.738;7.420;2023-02-28T14:33:13;3.80;99.90
64939;DHT22;51453;47.738;7.420;2023-02-28T14:38:21;3.60;99.90
64939;DHT22;51453;47.738;7.420;2023-02-28T14:40:52;3.70;99.90
64939;DHT22;51453;47.738;7.420;2023-02-28T14:43:23;3.70;99.90
64939;DHT22;51453;47.738;7.420;2023-02-28T14:45:51;3.80;99.90
64939;DHT22;51453;47.738;7.420;2023-02-28T14:48:20;3.70;99.90
64939;DHT22;51453;47.738;7.420;2023-02-28T14:50:52;3.60;99.90
64939;DHT22;51453;47.738;7.420;2023-02-28T14:53:21;3.50;99.90
64939;DHT22;51453;47.738;7.420;2023-02-28T14:55:48;3.50;99.90
64939;DHT22;51453;47.738;7.420;2023-02-28T14:58:33;3.60;99.90
64939;DHT22;51453;47.738;7.420;2023-02-28T15:01:02;3.70;99.90
64939;DHT22;51453;47.738;7.420;2023-02-28T15:03:32;3.60;99.90
64939;DHT22;51453;47.738;7.420;2023-02-28T15:06:03;3.60;99.90
64939;DHT22;51453;47.738;7.420;2023-02-28T15:08:30;3.70;99.90
64939;DHT22;51453;47.738;7.420;2023-02-28T15:13:49;3.30;99.90
64939;DHT22;51453;47.738;7.420;2023-02-28T15:16:32;3.30;99.90
64939;DHT22;51453;47.738;7.420;2023-02-28T15:21:36;3.30;99.90
64939;DHT22;51453;47.738;7.420;2023-02-28T15:24:28;3.30;99.90
64939;DHT22;51453;47.738;7.420;2023-02-28T15:26:58;3.30;99.90
64939;DHT22;51453;47.738;7.420;2023-02-28T15:29:27;3.30;99.90
64939;DHT22;51453;47.738;7.420;2023-02-28T15:32:00;3.30;99.90
64939;DHT22;51453;47.738;7.420;2023-02-28T15:34:43;3.20;99.90
64939;DHT22;51453;47.738;7.420;2023-02-28T15:37:28;3.30;99.90
64939;DHT22;51453;47.738;7.420;2023-02-28T15:40:04;3.30;99.90
64939;DHT22;51453;47.738;7.420;2023-02-28T15:42:30;3.30;99.90
64939;DHT22;51453;47.738;7.420;2023-02-28T15:44:57;3.10;99.90
64939;DHT22;51453;47.738;7.420;2023-02-28T15:47:25;3.10;99.90
64939;DHT22;51453;47.738;7.420;2023-02-28T15:49:52;3.00;99.90
64939;DHT22;51453;47.738;7.420;2023-02-28T15:52:40;3.00;99.90
64939;DHT22;51453;47.738;7.420;2023-02-28T15:55:09;3.00;99.90
64939;DHT22;51453;47.738;7.420;2023-02-28T15:57:39;3.00;99.90
64939;DHT22;51453;47.738;7.420;2023-02-28T16:00:09;3.00;99.90
64939;DHT22;51453;47.738;7.420;2023-02-28T16:02:37;3.00;99.90
64939;DHT22;51453;47.738;7.420;2023-02-28T16:07:33;3.00;99.90
64939;DHT22;51453;47.738;7.420;2023-02-28T16:09:59;2.90;99.90
64939;DHT22;51453;47.738;7.420;2023-02-28T16:12:31;2.90;99.90
64939;DHT22;51453;47.738;7.420;2023-02-28T16:14:59;3.00;99.90
64939;DHT22;51453;47.738;7.420;2023-02-28T16:17:30;3.00;99.90
64939;DHT22;51453;47.738;7.420;2023-02-28T16:19:57;3.00;99.90
64939;DHT22;51453;47.738;7.420;2023-02-28T16:22:23;2.90;99.90
64939;DHT22;51453;47.738;7.420;2023-02-28T16:24:49;2.90;99.90
64939;DHT22;51453;47.738;7.420;2023-02-28T16:27:36;2.90;99.90
64939;DHT22;51453;47.738;7.420;2023-02-28T16:30:04;2.90;99.90
64939;DHT22;51453;47.738;7.420;2023-02-28T16:32:31;2.90;99.90
64939;DHT22;51453;47.738;7.420;2023-02-28T16:34:57;2.80;99.90
64939;DHT22;51453;47.738;7.420;2023-02-28T16:37:23;2.80;99.90
64939;DHT22;51453;47.738;7.420;2023-02-28T16:39:49;2.80;99.90
64939;DHT22;51453;47.738;7.420;2023-02-28T16:42:22;2.80;99.90
64939;DHT22;51453;47.738;7.420;2023-02-28T16:44:48;2.80;99.90
64939;DHT22;51453;47.738;7.420;2023-02-28T16:47:14;2.70;99.90
64939;DHT22;51453;47.738;7.420;2023-02-28T16:49:40;2.80;99.90
64939;DHT22;51453;47.738;7.420;2023-02-28T16:52:08;2.80;99.90
64939;DHT22;51453;47.738;7.420;2023-02-28T16:54:34;2.70;99.90
64939;DHT22;51453;47.738;7.420;2023-02-28T16:57:00;2.80;99.90
64939;DHT22;51453;47.738;7.420;2023-02-28T16:59:27;2.70;99.90
64939;DHT22;51453;47.738;7.420;2023-02-28T17:01:54;2.60;99.90
64939;DHT22;51453;47.738;7.420;2023-02-28T17:04:21;2.70;99.90
64939;DHT22;51453;47.738;7.420;2023-02-28T17:06:46;2.70;99.90
64939;DHT22;51453;47.738;7.420;2023-02-28T17:09:21;2.60;99.90
64939;DHT22;51453;47.738;7.420;2023-02-28T17:11:47;2.70;99.90
64939;DHT22;51453;47.738;7.420;2023-02-28T17:14:14;2.70;99.90
64939;DHT22;51453;47.738;7.420;2023-02-28T17:16:40;2.70;99.90
64939;DHT22;51453;47.738;7.420;2023-02-28T17:19:12;2.70;99.90
64939;DHT22;51453;47.738;7.420;2023-02-28T17:21:38;2.60;99.90
64939;DHT22;51453;47.738;7.420;2023-02-28T17:24:07;2.60;99.90
64939;DHT22;51453;47.738;7.420;2023-02-28T17:26:35;2.60;99.90
64939;DHT22;51453;47.738;7.420;2023-02-28T17:29:01;2.50;99.90
64939;DHT22;51453;47.738;7.420;2023-02-28T17:31:27;2.50;99.90
64939;DHT22;51453;47.738;7.420;2023-02-28T17:33:53;2.40;99.90
64939;DHT22;51453;47.738;7.420;2023-02-28T17:36:26;2.40;99.90
64939;DHT22;51453;47.738;7.420;2023-02-28T17:38:53;2.40;99.90
64939;DHT22;51453;47.738;7.420;2023-02-28T17:41:20;2.20;99.90
64939;DHT22;51453;47.738;7.420;2023-02-28T17:43:46;2.10;99.90
64939;DHT22;51453;47.738;7.420;2023-02-28T17:46:18;2.00;99.90
64939;DHT22;51453;47.738;7.420;2023-02-28T17:48:49;1.90;99.90
64939;DHT22;51453;47.738;7.420;2023-02-28T17:51:15;1.80;99.90
64939;DHT22;51453;47.738;7.420;2023-02-28T17:53:41;1.70;99.90
64939;DHT22;51453;47.738;7.420;2023-02-28T17:56:15;1.60;99.90
64939;DHT22;51453;47.738;7.420;2023-02-28T17:58:41;1.50;99.90
64939;DHT22;51453;47.738;7.420;2023-02-28T18:01:07;1.40;99.90
64939;DHT22;51453;47.738;7.420;2023-02-28T18:03:33;1.40;99.90
64939;DHT22;51453;47.738;7.420;2023-02-28T18:05:59;1.20;99.90
64939;DHT22;51453;47.738;7.420;2023-02-28T18:08:25;1.20;99.90
64939;DHT22;51453;47.738;7.420;2023-02-28T18:10:51;1.20;99.90
64939;DHT22;51453;47.738;7.420;2023-02-28T18:13:17;1.00;99.90
64939;DHT22;51453;47.738;7.420;2023-02-28T18:15:43;1.00;99.90
64939;DHT22;51453;47.738;7.420;2023-02-28T18:18:09;0.90;99.90
64939;DHT22;51453;47.738;7.420;2023-02-28T18:20:35;0.80;99.90